SE-0052 weather

Bergs Airstrip
Berg, Jämtlande län, Sweden

Public forecast

Using degrees Celsius for public forecast. Weather courtesy of forecast.io.

METAR (pilot weather report)

Closest report is Åre Östersund Airport, 25.1 nm (46.4 km) N. Retrieved 2019/09/23 07:20 UTC (34 minutes ago):

ESNZ 230720Z 15013KT 9999 BKN009 05/03 Q1020

TAF (pilot weather forecast)

Forecast is more than 12 hours old.

Closest forecast is Sundsvall-Härnösand Airport, 85.1 nm (157.6 km) E. Retrieved 2016/05/29 09:33 UTC (3 years ago):

TAF TAF ESNN 290830Z 2909/3018 07006KT 9999 SCT045 BECMG 2913/2915 14010KT